Time;durP1;ratioP1;P1;durP2;ratioP2;P2;SDS_P1;SDS_P2;PMS_P1;PMS_P2;Temp;Humidity;BMP_temperature;BMP_pressure;BME280_temperature;BME280_humidity;BME280_pressure;Samples;Min_cycle;Max_cycle;Signal;HPM_P1;HPM_P2
2021/10/13 00:00:18;;;;;;;19.80;17.05;;;;;;;16.15;43.82;99259.12;1793750;78;21068;-70
2021/10/13 00:02:45;;;;;;;20.57;16.50;;;;;;;16.16;43.88;99263.95;1794358;78;21074;-70
2021/10/13 00:05:13;;;;;;;18.55;15.60;;;;;;;16.13;43.90;99266.55;1796112;78;21658;-69
2021/10/13 00:07:40;;;;;;;20.88;16.65;;;;;;;16.13;43.97;99263.88;1785689;78;20994;-70
2021/10/13 00:10:07;;;;;;;18.67;16.23;;;;;;;16.12;43.99;99269.73;1772397;78;21541;-71
2021/10/13 00:12:35;;;;;;;19.25;17.07;;;;;;;16.11;44.05;99262.74;1773904;78;21658;-71
2021/10/13 00:15:05;;;;;;;22.60;17.10;;;;;;;16.10;44.10;99253.58;1779458;79;21061;-70
2021/10/13 00:17:33;;;;;;;20.97;17.67;;;;;;;16.09;44.16;99251.42;1774509;78;21112;-70
2021/10/13 00:20:02;;;;;;;20.50;17.70;;;;;;;16.09;44.19;99247.93;1762330;78;21034;-73
2021/10/13 00:22:28;;;;;;;20.43;16.97;;;;;;;16.08;44.28;99240.91;1769744;78;21008;-69
2021/10/13 00:24:54;;;;;;;18.60;16.05;;;;;;;16.07;44.31;99248.14;1771740;78;21081;-70
2021/10/13 00:27:21;;;;;;;19.60;16.57;;;;;;;16.07;44.33;99247.30;1774009;78;21092;-68
2021/10/13 00:29:47;;;;;;;19.95;15.90;;;;;;;16.06;44.39;99242.99;1777892;78;21707;-69
2021/10/13 00:32:13;;;;;;;20.05;17.57;;;;;;;16.05;44.41;99249.38;1775432;79;21058;-69
2021/10/13 00:34:39;;;;;;;24.47;16.97;;;;;;;16.05;44.43;99246.69;1773625;78;21028;-69
2021/10/13 00:37:08;;;;;;;19.55;16.12;;;;;;;16.04;44.46;99241.05;1771038;78;21538;-69
2021/10/13 00:39:34;;;;;;;19.73;17.25;;;;;;;16.04;44.47;99247.75;1766884;78;21057;-70
2021/10/13 00:42:01;;;;;;;18.17;16.23;;;;;;;16.03;44.52;99246.93;1766865;78;21205;-69
2021/10/13 00:44:27;;;;;;;20.65;16.40;;;;;;;16.03;44.56;99251.45;1763076;78;21041;-72
2021/10/13 00:46:53;;;;;;;18.98;15.70;;;;;;;16.02;44.61;99244.47;1761506;78;21041;-71
2021/10/13 00:49:20;;;;;;;19.98;17.80;;;;;;;16.01;44.62;99246.33;1764108;78;21299;-71
2021/10/13 00:51:46;;;;;;;18.75;15.98;;;;;;;16.01;44.68;99249.01;1771642;79;21542;-70
2021/10/13 00:54:13;;;;;;;22.40;17.07;;;;;;;16.00;44.72;99247.35;1757880;78;21139;-70
2021/10/13 00:56:39;;;;;;;18.45;15.60;;;;;;;15.99;44.77;99250.23;1771275;78;21050;-71
2021/10/13 00:59:06;;;;;;;18.80;16.30;;;;;;;15.99;44.80;99246.22;1774625;78;21502;-70
2021/10/13 01:01:52;;;;;;;19.95;15.93;;;;;;;15.98;44.84;99248.61;1776781;78;21065;-70
2021/10/13 01:04:43;;;;;;;20.92;15.48;;;;;;;15.97;44.86;99249.11;1781556;79;21676;-71
2021/10/13 01:07:37;;;;;;;18.12;15.98;;;;;;;15.96;44.89;99246.67;1792186;78;21281;-69
2021/10/13 01:10:44;;;;;;;21.97;16.52;;;;;;;15.94;44.95;99250.08;1769644;79;21038;-70
2021/10/13 01:13:39;;;;;;;22.13;16.20;;;;;;;15.91;45.05;99255.33;1770510;79;21045;-71
2021/10/13 01:16:14;;;;;;;17.82;15.88;;;;;;;15.88;45.10;99243.20;1761161;80;21058;-71
2021/10/13 01:19:00;;;;;;;17.27;14.68;;;;;;;15.85;45.15;99238.78;1779869;79;20993;-71
2021/10/13 01:21:59;;;;;;;19.48;16.85;;;;;;;15.83;45.21;99249.70;1766744;80;21136;-70
2021/10/13 01:25:10;;;;;;;17.57;14.83;;;;;;;15.83;45.24;99245.69;1769694;80;21441;-68
2021/10/13 01:28:00;;;;;;;18.60;15.58;;;;;;;15.81;45.32;99245.09;1799418;78;21049;-68
2021/10/13 01:30:34;;;;;;;18.98;16.02;;;;;;;15.78;45.37;99250.89;1782045;78;21435;-68
2021/10/13 01:33:07;;;;;;;19.17;16.32;;;;;;;15.77;45.39;99247.89;1763679;79;21021;-68
2021/10/13 01:35:34;;;;;;;19.67;16.30;;;;;;;15.75;45.45;99249.96;1812043;78;21100;-68
2021/10/13 01:38:04;;;;;;;18.40;15.58;;;;;;;15.73;45.46;99244.81;1785280;78;21033;-68
2021/10/13 01:40:32;;;;;;;19.05;16.77;;;;;;;15.73;45.49;99251.51;1733658;81;21594;-72
2021/10/13 01:43:01;;;;;;;19.27;16.15;;;;;;;15.73;45.50;99252.03;1776789;79;22036;-69
2021/10/13 01:45:27;;;;;;;18.55;16.62;;;;;;;15.72;45.56;99255.70;1772009;79;21092;-69
2021/10/13 01:47:55;;;;;;;19.60;16.17;;;;;;;15.72;45.57;99252.53;1763369;80;21642;-69
2021/10/13 01:50:23;;;;;;;20.05;17.25;;;;;;;15.70;45.60;99255.94;1800077;78;21026;-70
2021/10/13 01:52:50;;;;;;;19.25;17.23;;;;;;;15.70;45.63;99260.45;1793261;78;21021;-70
2021/10/13 01:55:18;;;;;;;19.23;16.27;;;;;;;15.69;45.67;99266.33;1789947;78;20985;-70
2021/10/13 01:57:48;;;;;;;18.50;16.50;;;;;;;15.68;45.69;99260.69;1771491;78;21100;-69
2021/10/13 02:00:15;;;;;;;18.85;15.55;;;;;;;15.68;45.71;99255.33;1786424;78;21642;-69
2021/10/13 02:02:41;;;;;;;20.75;16.82;;;;;;;15.67;45.72;99256.35;1769490;79;21065;-70
2021/10/13 02:05:08;;;;;;;18.73;16.15;;;;;;;15.67;45.73;99260.89;1784177;80;21084;-68
2021/10/13 02:07:34;;;;;;;23.02;16.87;;;;;;;15.66;45.77;99260.05;1786055;79;21018;-69
2021/10/13 02:10:07;;;;;;;20.27;16.97;;;;;;;15.65;45.80;99257.61;1757898;80;21084;-69
2021/10/13 02:12:34;;;;;;;20.25;16.65;;;;;;;15.64;45.82;99262.13;1779331;79;21128;-69
2021/10/13 02:15:02;;;;;;;21.05;16.15;;;;;;;15.62;45.86;99264.19;1768041;78;21054;-70
2021/10/13 02:17:31;;;;;;;18.35;15.05;;;;;;;15.61;45.89;99271.94;1784808;78;21496;-70
2021/10/13 02:19:58;;;;;;;18.98;16.97;;;;;;;15.61;45.92;99267.11;1766958;79;21505;-69
2021/10/13 02:22:27;;;;;;;21.93;17.17;;;;;;;15.60;45.96;99277.50;1760826;79;21084;-70
2021/10/13 02:24:55;;;;;;;18.35;15.38;;;;;;;15.58;45.98;99279.56;1734051;80;21229;-68
2021/10/13 02:27:30;;;;;;;18.10;15.75;;;;;;;15.58;46.02;99280.91;1791298;78;21005;-69
2021/10/13 02:29:57;;;;;;;19.02;17.10;;;;;;;15.56;46.06;99278.95;1750446;80;21123;-71
2021/10/13 02:32:23;;;;;;;19.00;15.93;;;;;;;15.53;46.09;99271.66;1772448;79;21038;-69
2021/10/13 02:34:49;;;;;;;18.12;16.27;;;;;;;15.52;46.15;99280.70;1767881;79;21580;-69
2021/10/13 02:37:16;;;;;;;21.50;18.87;;;;;;;15.53;46.22;99288.24;1764317;80;21149;-70
2021/10/13 02:39:44;;;;;;;19.45;17.42;;;;;;;15.52;46.24;99290.08;1754387;80;21019;-71
2021/10/13 02:42:10;;;;;;;20.32;18.02;;;;;;;15.51;46.27;99283.59;1772190;79;21037;-70
2021/10/13 02:44:37;;;;;;;18.87;16.90;;;;;;;15.50;46.30;99285.98;1761757;79;21049;-70
2021/10/13 02:47:18;;;;;;;22.65;19.70;;;;;;;15.48;46.36;99282.69;1771665;79;21062;-71
2021/10/13 02:49:50;;;;;;;21.00;18.80;;;;;;;15.48;46.38;99288.05;1758513;80;21111;-71
2021/10/13 02:52:28;;;;;;;24.32;21.10;;;;;;;15.47;46.43;99297.09;1756958;80;21739;-70
2021/10/13 02:55:02;;;;;;;22.93;20.40;;;;;;;15.45;46.47;99291.98;1755698;80;21097;-69
2021/10/13 02:57:45;;;;;;;24.35;20.97;;;;;;;15.44;46.50;99292.18;1786082;79;21084;-70
2021/10/13 03:00:13;;;;;;;26.12;23.22;;;;;;;15.43;46.53;99290.52;1736108;79;21504;-70
2021/10/13 03:02:54;;;;;;;26.95;24.18;;;;;;;15.41;46.55;99280.02;1757869;79;21170;-69
2021/10/13 03:05:21;;;;;;;26.57;23.77;;;;;;;15.41;46.60;99283.22;1764210;79;21073;-70
2021/10/13 03:07:48;;;;;;;27.60;23.98;;;;;;;15.40;46.57;99286.95;1771488;79;21123;-70
2021/10/13 03:10:14;;;;;;;31.25;27.13;;;;;;;15.39;46.57;99295.99;1780052;78;21055;-69
2021/10/13 03:12:49;;;;;;;29.18;25.90;;;;;;;15.39;46.59;99303.50;1777598;78;21111;-70
2021/10/13 03:15:17;;;;;;;29.30;26.35;;;;;;;15.39;46.59;99295.99;1767230;79;21158;-70
2021/10/13 03:17:46;;;;;;;29.02;26.02;;;;;;;15.38;46.59;99297.86;1768711;79;21052;-69
2021/10/13 03:20:14;;;;;;;30.95;26.27;;;;;;;15.37;46.59;99296.20;1771556;79;21521;-69
2021/10/13 03:22:40;;;;;;;27.52;24.63;;;;;;;15.37;46.56;99297.53;1760183;80;21485;-70
2021/10/13 03:25:07;;;;;;;29.40;25.15;;;;;;;15.37;46.58;99294.05;1764818;79;21049;-70
2021/10/13 03:27:34;;;;;;;26.57;23.38;;;;;;;15.37;46.58;99300.21;1764744;79;22373;-72
2021/10/13 03:30:00;;;;;;;25.62;22.82;;;;;;;15.36;46.58;99299.92;1759927;79;21005;-71
2021/10/13 03:32:26;;;;;;;27.85;23.22;;;;;;;15.35;46.53;99298.27;1774284;79;22142;-71
2021/10/13 03:34:53;;;;;;;27.00;21.23;;;;;;;15.37;46.53;99300.73;1767018;80;21044;-70
2021/10/13 03:37:19;;;;;;;26.87;22.42;;;;;;;15.36;46.50;99296.43;1769053;79;21053;-71
2021/10/13 03:39:47;;;;;;;25.55;22.25;;;;;;;15.35;46.49;99295.59;1780168;79;21120;-71
2021/10/13 03:42:14;;;;;;;27.05;21.93;;;;;;;15.33;46.48;99305.16;1777894;79;21017;-71
2021/10/13 03:44:40;;;;;;;26.33;21.05;;;;;;;15.34;46.46;99306.00;1785372;79;21061;-70
2021/10/13 03:47:06;;;;;;;25.45;20.97;;;;;;;15.34;46.50;99308.16;1767140;79;21013;-69
2021/10/13 03:49:33;;;;;;;25.92;21.62;;;;;;;15.33;46.51;99309.17;1775631;79;21060;-70
2021/10/13 03:52:00;;;;;;;24.75;20.65;;;;;;;15.32;46.53;99314.76;1793893;79;21132;-70
2021/10/13 03:54:26;;;;;;;24.47;21.90;;;;;;;15.32;46.52;99316.09;1782766;79;21044;-71
2021/10/13 03:56:52;;;;;;;23.92;20.82;;;;;;;15.31;46.53;99311.23;1772190;80;20992;-70
2021/10/13 03:59:19;;;;;;;24.57;20.82;;;;;;;15.31;46.54;99315.25;1792458;79;21089;-72
2021/10/13 04:01:45;;;;;;;25.00;20.17;;;;;;;15.31;46.54;99312.58;1772115;79;21033;-70
2021/10/13 04:04:12;;;;;;;22.48;20.08;;;;;;;15.31;46.55;99302.39;1781327;78;21153;-69
2021/10/13 04:06:38;;;;;;;22.93;19.45;;;;;;;15.30;46.54;99303.44;1781814;78;21088;-69
2021/10/13 04:09:07;;;;;;;21.90;19.37;;;;;;;15.29;46.56;99305.27;1790238;78;21040;-69
2021/10/13 04:11:34;;;;;;;24.60;19.65;;;;;;;15.28;46.56;99299.63;1774965;79;21082;-72
2021/10/13 04:14:00;;;;;;;24.20;20.62;;;;;;;15.28;46.57;99301.50;1764694;80;21019;-71
2021/10/13 04:16:26;;;;;;;24.95;20.75;;;;;;;15.26;46.58;99293.67;1764617;80;21090;-72
2021/10/13 04:18:53;;;;;;;22.85;20.45;;;;;;;15.25;46.61;99294.69;1739207;80;21104;-71
2021/10/13 04:21:19;;;;;;;22.48;20.08;;;;;;;15.25;46.64;99296.55;1783966;78;21044;-69
2021/10/13 04:23:45;;;;;;;20.65;18.42;;;;;;;15.23;46.67;99295.41;1755204;79;21078;-69
2021/10/13 04:26:12;;;;;;;20.90;18.75;;;;;;;15.22;46.69;99296.95;1785737;78;21050;-69
2021/10/13 04:28:38;;;;;;;23.45;19.67;;;;;;;15.22;46.70;99300.97;1782137;78;21896;-70
2021/10/13 04:31:05;;;;;;;22.77;18.67;;;;;;;15.21;46.73;99298.00;1801313;78;21008;-70
2021/10/13 04:33:31;;;;;;;24.70;19.45;;;;;;;15.19;46.74;99298.20;1771185;79;21061;-72
2021/10/13 04:35:57;;;;;;;20.97;18.67;;;;;;;15.19;46.76;99302.73;1763965;79;21081;-71
2021/10/13 04:38:23;;;;;;;23.98;18.65;;;;;;;15.18;46.78;99305.91;1760070;79;21072;-71
2021/10/13 04:40:50;;;;;;;24.02;19.50;;;;;;;15.16;46.79;99307.97;1754160;79;21153;-71
2021/10/13 04:43:16;;;;;;;23.22;19.25;;;;;;;15.15;46.83;99311.70;1760602;79;22020;-71
2021/10/13 04:45:43;;;;;;;21.37;18.98;;;;;;;15.14;46.85;99302.85;1752763;79;21049;-69
2021/10/13 04:48:09;;;;;;;20.55;18.37;;;;;;;15.14;46.85;99306.02;1770904;79;21045;-69
2021/10/13 04:50:36;;;;;;;20.12;17.82;;;;;;;15.13;46.88;99307.88;1763470;79;21073;-68
2021/10/13 04:53:02;;;;;;;22.02;18.62;;;;;;;15.12;46.91;99312.95;1778020;79;21123;-69
2021/10/13 04:55:29;;;;;;;22.82;19.23;;;;;;;15.12;46.93;99310.77;1755384;80;21064;-69
2021/10/13 04:57:55;;;;;;;22.70;18.90;;;;;;;15.10;46.94;99306.98;1775984;79;21047;-69
2021/10/13 05:00:21;;;;;;;21.02;18.35;;;;;;;15.10;46.96;99309.66;1786243;79;21037;-69
2021/10/13 05:02:47;;;;;;;21.80;18.65;;;;;;;15.10;46.97;99314.16;1769836;79;21044;-69
2021/10/13 05:05:14;;;;;;;24.23;20.50;;;;;;;15.09;46.95;99326.72;1767329;80;21034;-69
2021/10/13 05:07:41;;;;;;;24.67;20.90;;;;;;;15.09;46.97;99329.40;1766047;79;21084;-70
2021/10/13 05:10:08;;;;;;;23.15;19.95;;;;;;;15.09;47.00;99333.94;1769882;80;21578;-69
2021/10/13 05:12:34;;;;;;;23.30;20.08;;;;;;;15.10;46.97;99339.58;1765085;79;21107;-72
2021/10/13 05:15:01;;;;;;;23.32;20.12;;;;;;;15.09;46.97;99345.45;1776889;80;21522;-70
2021/10/13 05:17:29;;;;;;;23.65;19.42;;;;;;;15.10;47.00;99335.56;1770883;79;21085;-68
2021/10/13 05:19:55;;;;;;;24.37;19.60;;;;;;;15.10;47.01;99338.23;1773047;79;21032;-70
2021/10/13 05:22:22;;;;;;;24.25;20.43;;;;;;;15.10;46.99;99340.91;1755708;79;21172;-69
2021/10/13 05:24:48;;;;;;;22.70;19.62;;;;;;;15.11;47.00;99339.90;1770757;78;21020;-69
2021/10/13 05:27:15;;;;;;;22.65;19.87;;;;;;;15.11;47.00;99338.03;1768907;78;21621;-70
2021/10/13 05:29:41;;;;;;;25.60;20.43;;;;;;;15.11;46.98;99336.70;1769942;78;21107;-67
2021/10/13 05:32:07;;;;;;;22.62;19.85;;;;;;;15.12;46.99;99341.03;1773508;78;21025;-68
2021/10/13 05:34:34;;;;;;;23.27;19.77;;;;;;;15.13;46.98;99346.67;1771878;79;21085;-69
2021/10/13 05:37:00;;;;;;;22.65;20.20;;;;;;;15.14;47.00;99351.02;1773022;78;21523;-69
2021/10/13 05:39:27;;;;;;;22.35;19.82;;;;;;;15.15;47.00;99354.50;1792341;78;21029;-69
2021/10/13 05:41:53;;;;;;;24.10;20.50;;;;;;;15.16;47.04;99356.13;1789026;78;21121;-69
2021/10/13 05:44:19;;;;;;;26.07;19.75;;;;;;;15.17;47.05;99356.98;1789520;79;21575;-71
2021/10/13 05:46:46;;;;;;;23.57;19.62;;;;;;;15.18;47.05;99348.72;1794174;78;21024;-72
2021/10/13 05:49:12;;;;;;;22.55;19.65;;;;;;;15.19;47.04;99356.25;1786591;78;20991;-70
2021/10/13 05:51:38;;;;;;;27.10;21.05;;;;;;;15.20;47.04;99360.56;1784756;78;21584;-68
2021/10/13 05:54:05;;;;;;;21.70;19.32;;;;;;;15.20;47.07;99364.08;1772991;79;21115;-70
2021/10/13 05:56:32;;;;;;;20.02;17.87;;;;;;;15.21;47.10;99367.56;1761165;78;21100;-71
2021/10/13 05:58:58;;;;;;;21.35;18.82;;;;;;;15.21;47.10;99368.91;1765805;78;21032;-71
2021/10/13 06:01:24;;;;;;;22.00;18.87;;;;;;;15.22;47.08;99369.20;1777908;80;21010;-69
2021/10/13 06:03:51;;;;;;;21.55;18.65;;;;;;;15.24;47.08;99367.14;1777386;78;21053;-70
2021/10/13 06:06:18;;;;;;;21.52;17.65;;;;;;;15.25;47.09;99360.77;1776992;78;22326;-71
2021/10/13 06:08:44;;;;;;;21.33;17.40;;;;;;;15.26;47.06;99358.38;1777241;78;21026;-70
2021/10/13 06:11:11;;;;;;;22.25;18.67;;;;;;;15.27;47.08;99356.84;1753528;78;21061;-69
2021/10/13 06:13:39;;;;;;;21.87;19.52;;;;;;;15.29;47.08;99355.30;1749212;80;21018;-69
2021/10/13 06:16:07;;;;;;;20.48;17.65;;;;;;;15.30;47.08;99360.98;1770587;78;21047;-70
2021/10/13 06:18:34;;;;;;;19.98;16.95;;;;;;;15.31;47.04;99363.42;1759490;78;21140;-69
2021/10/13 06:21:54;;;;;;;20.72;18.57;;;;;;;15.38;47.00;99359.41;1871530;74;28591;-70
2021/10/13 06:24:20;;;;;;;23.75;18.73;;;;;;;15.38;46.96;99362.61;1857270;75;20965;-69
2021/10/13 06:26:50;;;;;;;19.92;17.52;;;;;;;15.40;46.91;99370.73;1842632;77;21118;-70
2021/10/13 06:29:16;;;;;;;19.52;17.48;;;;;;;15.42;46.90;99373.20;1844844;75;21450;-68
2021/10/13 06:31:43;;;;;;;20.02;17.57;;;;;;;15.42;46.89;99370.53;1855790;75;21013;-70
2021/10/13 06:34:09;;;;;;;19.00;17.00;;;;;;;15.45;46.87;99377.63;1850338;75;21001;-70
2021/10/13 06:36:36;;;;;;;20.40;17.70;;;;;;;15.45;46.85;99373.61;1782402;79;21557;-70
2021/10/13 06:39:03;;;;;;;20.12;16.80;;;;;;;15.47;46.85;99374.72;1837861;76;21705;-69
2021/10/13 06:41:30;;;;;;;21.07;16.55;;;;;;;15.49;46.84;99381.53;1838333;75;21534;-69
2021/10/13 06:43:57;;;;;;;19.27;17.17;;;;;;;15.51;46.84;99386.66;1843142;75;21041;-70
2021/10/13 06:46:23;;;;;;;18.73;16.10;;;;;;;15.52;46.87;99389.66;1846013;75;21014;-70
2021/10/13 06:48:49;;;;;;;19.05;16.23;;;;;;;15.53;46.84;99396.66;1823179;75;21056;-70
2021/10/13 06:51:16;;;;;;;21.12;16.70;;;;;;;15.54;46.85;99400.45;1844288;76;21494;-71
2021/10/13 06:53:46;;;;;;;19.65;17.57;;;;;;;15.54;46.85;99389.73;1841122;75;21009;-69
2021/10/13 06:56:12;;;;;;;17.35;15.58;;;;;;;15.57;46.86;99398.38;1850042;75;20970;-68
2021/10/13 06:58:39;;;;;;;19.27;16.60;;;;;;;15.59;46.84;99393.64;1858763;75;21646;-70
2021/10/13 07:01:06;;;;;;;17.42;15.58;;;;;;;15.60;46.80;99396.64;1840001;75;21019;-68
2021/10/13 07:03:50;;;;;;;19.62;16.37;;;;;;;15.61;46.82;99394.28;1845725;75;21018;-71
2021/10/13 07:06:15;;;;;;;19.73;16.80;;;;;;;15.61;46.84;99388.92;1750569;80;21525;-69
2021/10/13 07:08:46;;;;;;;20.10;17.92;;;;;;;15.61;46.85;99402.31;1805737;77;20987;-71
2021/10/13 07:11:19;;;;;;;19.02;16.62;;;;;;;15.61;46.89;99400.98;1834966;75;20982;-69
2021/10/13 07:13:48;;;;;;;19.87;16.45;;;;;;;15.62;46.91;99399.93;1811274;77;21057;-70
2021/10/13 07:16:14;;;;;;;17.62;15.83;;;;;;;15.62;46.92;99403.95;1849252;75;21535;-71
2021/10/13 07:18:42;;;;;;;21.45;16.60;;;;;;;15.61;46.95;99408.48;1854740;77;20959;-71
2021/10/13 07:21:08;;;;;;;20.08;17.65;;;;;;;15.62;46.96;99407.96;1847534;75;21002;-70
2021/10/13 07:23:35;;;;;;;20.20;17.35;;;;;;;15.62;46.98;99394.57;1841899;75;21020;-69
2021/10/13 07:26:01;;;;;;;20.12;17.65;;;;;;;15.63;46.97;99393.55;1847986;75;21076;-68
2021/10/13 07:28:28;;;;;;;25.68;21.75;;;;;;;15.63;46.97;99390.36;1864937;76;21103;-70
2021/10/13 07:30:55;;;;;;;33.15;28.67;;;;;;;15.63;46.98;99394.38;1854119;75;21045;-69
2021/10/13 07:33:21;;;;;;;26.37;21.97;;;;;;;15.64;47.00;99389.83;1865576;75;21069;-70
2021/10/13 07:35:49;;;;;;;21.77;19.42;;;;;;;15.65;46.99;99383.45;1851857;76;21044;-70
2021/10/13 07:38:17;;;;;;;24.87;20.23;;;;;;;15.65;46.99;99384.80;1861108;75;21061;-69
2021/10/13 07:40:43;;;;;;;23.07;18.73;;;;;;;15.66;46.99;99388.58;1849817;75;23247;-69
2021/10/13 07:43:10;;;;;;;22.13;19.20;;;;;;;15.68;46.99;99393.73;1837735;75;21552;-70
2021/10/13 07:45:36;;;;;;;20.12;17.82;;;;;;;15.68;46.96;99392.39;1859097;76;21441;-69
2021/10/13 07:48:03;;;;;;;22.52;18.52;;;;;;;15.70;46.97;99397.02;1818078;77;21088;-71
2021/10/13 07:50:31;;;;;;;23.67;18.73;;;;;;;15.70;46.97;99395.19;1812169;77;21048;-70
2021/10/13 07:52:57;;;;;;;20.20;18.05;;;;;;;15.72;46.96;99393.61;1813339;78;21129;-70
2021/10/13 07:55:24;;;;;;;20.40;18.30;;;;;;;15.72;46.92;99390.44;1823411;77;21520;-70
2021/10/13 07:57:50;;;;;;;19.98;17.92;;;;;;;15.72;46.93;99397.14;1821650;77;21072;-70
2021/10/13 08:00:19;;;;;;;19.37;17.00;;;;;;;15.74;46.92;99399.61;1785135;78;21021;-70
2021/10/13 08:02:47;;;;;;;19.55;17.55;;;;;;;15.74;46.91;99394.25;1800710;78;21135;-74
2021/10/13 08:05:17;;;;;;;19.17;17.25;;;;;;;15.76;46.92;99394.89;1783341;78;21101;-73
2021/10/13 08:07:45;;;;;;;18.98;16.93;;;;;;;15.76;46.96;99392.71;1785670;78;21079;-74
2021/10/13 08:10:11;;;;;;;19.10;16.40;;;;;;;15.76;47.00;99398.91;1785469;79;21032;-73
2021/10/13 08:12:41;;;;;;;21.00;16.93;;;;;;;15.77;47.02;99403.74;1782942;78;21524;-75
2021/10/13 08:15:09;;;;;;;17.62;15.72;;;;;;;15.75;47.02;99401.27;1792229;78;21090;-73
2021/10/13 08:17:38;;;;;;;19.12;15.28;;;;;;;15.76;47.06;99400.25;1806566;77;21132;-75
2021/10/13 08:20:08;;;;;;;18.85;15.72;;;;;;;15.75;47.08;99402.61;1809347;78;21064;-74
2021/10/13 08:22:34;;;;;;;17.92;16.02;;;;;;;15.66;47.09;99382.41;1818057;77;21020;-81
2021/10/13 08:25:00;;;;;;;17.77;15.88;;;;;;;15.76;47.12;99393.55;1819123;78;21116;-76
2021/10/13 08:27:27;;;;;;;17.40;15.28;;;;;;;15.77;47.10;99397.05;1799171;77;21063;-76
2021/10/13 08:29:53;;;;;;;17.05;15.35;;;;;;;15.78;47.10;99394.66;1818503;77;22919;-76
2021/10/13 08:32:20;;;;;;;17.52;15.68;;;;;;;15.78;47.10;99398.68;1821061;77;21054;-79
2021/10/13 08:34:46;;;;;;;17.57;15.78;;;;;;;15.79;47.08;99389.63;1807458;77;21082;-77
2021/10/13 08:37:13;;;;;;;17.70;15.80;;;;;;;15.79;47.06;99392.30;1812202;78;21531;-77
2021/10/13 08:39:39;;;;;;;18.60;16.25;;;;;;;15.81;47.06;99392.91;1805205;77;21090;-78
2021/10/13 08:42:06;;;;;;;19.32;15.32;;;;;;;15.81;47.05;99391.05;1802521;78;21481;-76
2021/10/13 08:44:33;;;;;;;18.77;15.28;;;;;;;15.83;47.00;99390.32;1796467;77;21056;-78
2021/10/13 08:47:00;;;;;;;17.42;15.60;;;;;;;15.84;46.97;99387.97;1813401;77;21037;-77
2021/10/13 08:49:26;;;;;;;18.17;15.40;;;;;;;15.87;46.89;99392.06;1811285;77;21064;-80
2021/10/13 08:51:53;;;;;;;18.57;15.15;;;;;;;15.87;46.87;99395.56;1810309;77;21385;-77
2021/10/13 08:54:19;;;;;;;17.90;16.02;;;;;;;15.89;46.81;99394.02;1805719;77;21082;-78
2021/10/13 08:56:46;;;;;;;17.35;15.32;;;;;;;15.89;46.78;99394.83;1822175;77;21118;-77
2021/10/13 09:01:57;;;;;;;16.93;15.13;;;;;;;15.83;46.65;99372.91;1810815;77;21086;-75
2021/10/13 09:04:24;;;;;;;19.40;16.20;;;;;;;15.95;46.63;99390.48;1816010;77;21091;-75
2021/10/13 09:07:01;;;;;;;18.60;15.83;;;;;;;15.95;46.58;99391.01;1816012;77;21471;-79
2021/10/13 09:09:28;;;;;;;17.70;15.90;;;;;;;15.97;46.56;99395.11;1798338;78;21020;-78
2021/10/13 09:11:54;;;;;;;18.95;16.67;;;;;;;15.99;46.54;99402.94;1806931;78;21084;-81
2021/10/13 09:14:26;;;;;;;19.62;15.95;;;;;;;16.01;46.52;99402.21;1804727;78;21068;-80
2021/10/13 09:17:02;;;;;;;19.92;16.40;;;;;;;16.02;46.52;99401.19;1805800;77;21051;-83
2021/10/13 09:19:43;;;;;;;19.40;17.40;;;;;;;16.04;46.51;99403.14;1810987;78;21432;-78
2021/10/13 09:22:13;;;;;;;20.82;16.75;;;;;;;16.03;46.50;99405.00;1793974;78;21087;-80
2021/10/13 09:24:43;;;;;;;20.27;17.77;;;;;;;16.05;46.50;99407.45;1802584;77;21044;-80
2021/10/13 09:27:30;;;;;;;21.80;17.70;;;;;;;16.05;46.52;99406.11;1803104;77;21008;-81
2021/10/13 09:30:12;;;;;;;18.87;16.48;;;;;;;16.06;46.51;99407.77;1797642;79;21091;-81
2021/10/13 09:32:45;;;;;;;21.37;18.12;;;;;;;16.05;46.51;99404.27;1859612;75;21399;-84
2021/10/13 09:35:13;;;;;;;19.42;17.32;;;;;;;16.06;46.54;99412.60;1835753;76;21541;-83
2021/10/13 09:37:49;;;;;;;19.77;17.65;;;;;;;16.06;46.56;99407.24;1851036;76;21256;-76
2021/10/13 09:40:35;;;;;;;19.60;16.67;;;;;;;16.07;46.54;99408.06;1839981;75;21040;-80
2021/10/13 09:43:04;;;;;;;21.02;18.55;;;;;;;16.09;46.52;99418.08;1835575;77;21061;-80
2021/10/13 09:45:37;;;;;;;20.95;17.85;;;;;;;16.09;46.49;99412.72;1840093;75;21037;-79
2021/10/13 09:48:10;;;;;;;20.68;17.60;;;;;;;16.10;46.52;99411.14;1849286;75;21055;-79
2021/10/13 09:50:47;;;;;;;19.27;17.15;;;;;;;16.10;46.50;99413.00;1842688;77;21002;-81
2021/10/13 09:53:25;;;;;;;26.40;18.65;;;;;;;16.10;46.49;99415.69;1834553;77;21074;-82
2021/10/13 09:55:56;;;;;;;20.12;17.95;;;;;;;16.11;46.47;99412.80;1836537;77;21060;-84
2021/10/13 09:58:35;;;;;;;24.65;17.65;;;;;;;16.11;46.46;99413.33;1838428;76;21071;-81
2021/10/13 10:01:14;;;;;;;20.57;17.32;;;;;;;16.11;46.50;99407.44;1843615;75;21017;-83
2021/10/13 10:03:46;;;;;;;19.92;17.45;;;;;;;16.13;46.45;99411.25;1847434;76;21022;-79
2021/10/13 10:06:14;;;;;;;23.40;18.35;;;;;;;16.13;46.46;99409.91;1846516;76;21010;-79
2021/10/13 10:08:59;;;;;;;21.95;17.20;;;;;;;16.13;46.45;99407.23;1866702;75;20985;-86
2021/10/13 10:11:40;;;;;;;20.08;16.85;;;;;;;16.15;46.40;99407.00;1849422;75;21567;-75
2021/10/13 10:14:36;;;;;;;20.30;17.80;;;;;;;16.15;46.38;99411.86;1848601;75;20983;-77
2021/10/13 10:17:05;;;;;;;23.83;17.10;;;;;;;16.13;46.32;99403.22;1844804;75;21045;-74
2021/10/13 10:19:49;;;;;;;19.32;16.27;;;;;;;16.14;46.32;99406.70;1852028;75;21534;-72
2021/10/13 10:22:24;;;;;;;19.95;16.62;;;;;;;16.12;46.26;99405.58;1844302;76;21512;-76
2021/10/13 10:24:54;;;;;;;20.08;15.15;;;;;;;16.15;46.22;99410.52;1847595;77;21091;-71
2021/10/13 10:27:26;;;;;;;18.75;16.35;;;;;;;16.17;46.19;99403.59;1851158;76;21517;-73
2021/10/13 10:30:13;;;;;;;22.52;15.25;;;;;;;16.16;46.15;99406.79;1816040;75;21225;-74
2021/10/13 10:32:45;;;;;;;17.55;15.23;;;;;;;16.17;46.07;99405.77;1811854;77;21032;-74
2021/10/13 10:35:15;;;;;;;17.73;14.70;;;;;;;16.18;46.01;99406.06;1849555;75;21006;-75
2021/10/13 10:37:48;;;;;;;16.67;14.38;;;;;;;16.19;45.97;99410.40;1846973;76;21111;-71
2021/10/13 10:40:30;;;;;;;16.80;15.10;;;;;;;16.20;45.93;99413.89;1849380;75;20952;-69
2021/10/13 10:43:03;;;;;;;18.03;15.23;;;;;;;16.20;45.89;99411.21;1846975;75;20957;-69
2021/10/13 10:45:37;;;;;;;17.80;14.43;;;;;;;16.21;45.85;99408.85;1848526;75;21683;-69
2021/10/13 10:48:07;;;;;;;16.23;14.20;;;;;;;16.21;45.81;99408.85;1778924;79;21049;-67
2021/10/13 10:50:57;;;;;;;16.52;14.68;;;;;;;16.21;45.79;99409.66;1852568;75;21948;-68
2021/10/13 10:53:46;;;;;;;15.53;13.90;;;;;;;16.21;45.77;99408.33;1844017;75;21084;-72
2021/10/13 10:56:25;;;;;;;16.40;14.63;;;;;;;16.22;45.72;99405.12;1814608;77;21103;-69
2021/10/13 10:59:04;;;;;;;14.98;13.18;;;;;;;16.21;45.68;99406.98;1838546;76;21048;-71
2021/10/13 11:01:33;;;;;;;17.40;14.47;;;;;;;16.23;45.59;99408.94;1844305;75;21057;-71
2021/10/13 11:04:08;;;;;;;14.68;13.03;;;;;;;16.24;45.53;99411.09;1837301;76;21113;-71
2021/10/13 11:06:37;;;;;;;15.95;14.35;;;;;;;16.24;45.47;99407.88;1853545;75;21153;-71
2021/10/13 11:09:08;;;;;;;16.25;14.53;;;;;;;16.16;45.37;99389.38;1836138;75;21048;-70
2021/10/13 11:11:41;;;;;;;14.03;12.55;;;;;;;16.28;45.34;99410.47;1846122;77;21048;-70
2021/10/13 11:14:12;;;;;;;18.77;13.88;;;;;;;16.30;45.30;99407.55;1843085;75;20960;-69
2021/10/13 11:16:57;;;;;;;16.00;14.30;;;;;;;16.30;45.27;99399.02;1837973;75;21137;-71
2021/10/13 11:19:30;;;;;;;17.55;14.43;;;;;;;16.33;45.27;99409.00;1837205;75;21148;-69
2021/10/13 11:22:06;;;;;;;16.00;14.00;;;;;;;16.33;45.25;99403.64;1828171;75;21082;-69
2021/10/13 11:24:35;;;;;;;15.68;13.95;;;;;;;16.34;45.30;99398.56;1841067;76;21059;-70
2021/10/13 11:27:01;;;;;;;17.55;13.98;;;;;;;16.35;45.30;99407.73;1840747;76;21028;-70
2021/10/13 11:29:31;;;;;;;15.63;13.93;;;;;;;16.36;45.31;99401.85;1837483;76;21072;-69
2021/10/13 11:32:13;;;;;;;16.50;14.75;;;;;;;16.37;45.36;99407.00;1844653;76;21552;-72